Time;durP1;ratioP1;P1;durP2;ratioP2;P2;SDS_P1;SDS_P2;PMS_P1;PMS_P2;Temp;Humidity;BMP_temperature;BMP_pressure;BME280_temperature;BME280_humidity;BME280_pressure;Samples;Min_cycle;Max_cycle;Signal;HPM_P1;HPM_P2
2023/11/19 00:01:53;;;;;;;;;;;;;;;-6.83;74.59;100630.78;4979597;28;19940;-75
2023/11/19 00:04:19;;;;;;;;;;;;;;;-6.77;74.60;100632.84;4979448;28;20764;-75
2023/11/19 00:06:44;;;;;;;;;;;;;;;-6.79;74.52;100626.84;4997568;28;19984;-75
2023/11/19 00:09:11;;;;;;;;;;;;;;;-6.88;74.56;100622.34;4998063;28;19925;-75
2023/11/19 00:11:37;;;;;;;;;;;;;;;-7.02;74.78;100607.69;4982696;28;19953;-75
2023/11/19 00:14:08;;;;;;;;;;;;;;;-7.00;74.98;100621.66;4985622;28;20003;-75
2023/11/19 00:16:34;;;;;;;;;;;;;;;-7.06;74.90;100625.72;5080008;28;20422;-75
2023/11/19 00:19:00;;;;;;;;;;;;;;;-7.09;75.33;100615.38;5082201;28;20008;-75
2023/11/19 00:21:28;;;;;;;;;;;;;;;-7.07;75.26;100621.38;5010522;28;19969;-75
2023/11/19 00:23:54;;;;;;;;;;;;;;;-7.07;75.02;100620.56;4962581;28;20058;-76
2023/11/19 00:26:20;;;;;;;;;;;;;;;-7.06;75.26;100616.91;4978610;28;20139;-75
2023/11/19 00:28:52;;;;;;;;;;;;;;;-7.00;74.92;100606.56;4973184;28;19925;-75
2023/11/19 00:31:20;;;;;;;;;;;;;;;-7.00;74.77;100614.53;4994451;28;19925;-75
2023/11/19 00:33:46;;;;;;;;;;;;;;;-7.02;75.02;100619.16;4970648;28;19948;-75
2023/11/19 00:36:12;;;;;;;;;;;;;;;-7.02;75.21;100605.88;4981237;28;20368;-75
2023/11/19 00:38:38;;;;;;;;;;;;;;;-7.05;75.33;100611.44;4987283;28;20011;-75
2023/11/19 00:41:04;;;;;;;;;;;;;;;-7.05;75.48;100607.97;4998904;28;20386;-75
2023/11/19 00:43:29;;;;;;;;;;;;;;;-7.06;75.48;100607.09;4996399;28;19957;-71
2023/11/19 00:45:55;;;;;;;;;;;;;;;-7.04;75.61;100610.47;4998840;28;19936;-75
2023/11/19 00:48:22;;;;;;;;;;;;;;;-7.01;75.64;100604.03;4984510;28;19930;-76
2023/11/19 00:50:49;;;;;;;;;;;;;;;-6.99;75.61;100602.94;4962127;28;19983;-76
2023/11/19 00:53:14;;;;;;;;;;;;;;;-7.07;75.90;100596.63;4986443;28;19926;-75
2023/11/19 00:55:40;;;;;;;;;;;;;;;-7.07;76.18;100600.09;4974000;28;19926;-76
2023/11/19 00:58:06;;;;;;;;;;;;;;;-7.13;76.32;100598.03;4977586;28;20352;-75
2023/11/19 01:00:32;;;;;;;;;;;;;;;-7.21;76.55;100590.75;4980607;28;20360;-75
2023/11/19 01:02:59;;;;;;;;;;;;;;;-7.28;76.85;100597.56;4979930;28;19926;-75
2023/11/19 01:05:28;;;;;;;;;;;;;;;-7.35;77.25;100589.31;4975855;28;19925;-75
2023/11/19 01:07:54;;;;;;;;;;;;;;;-7.36;77.94;100592.94;4995059;28;20005;-75
2023/11/19 01:10:20;;;;;;;;;;;;;;;-7.39;78.03;100592.41;4961858;28;19990;-75
2023/11/19 01:12:46;;;;;;;;;;;;;;;-7.43;78.15;100589.19;4979822;28;20028;-75
2023/11/19 01:15:13;;;;;;;;;;;;;;;-7.46;78.60;100577.00;4984008;28;19948;-75
2023/11/19 01:17:38;;;;;;;;;;;;;;;-7.49;78.75;100571.13;4991702;28;19925;-75
2023/11/19 01:20:07;;;;;;;;;;;;;;;-7.53;78.82;100570.56;4977667;28;20240;-75
2023/11/19 01:22:35;;;;;;;;;;;;;;;-7.59;79.08;100563.97;4982499;28;20371;-75
2023/11/19 01:25:02;;;;;;;;;;;;;;;-7.62;79.18;100558.09;4996320;28;19961;-75
2023/11/19 01:27:29;;;;;;;;;;;;;;;-7.63;79.44;100556.41;4963690;28;19936;-76
2023/11/19 01:29:55;;;;;;;;;;;;;;;-7.62;79.41;100558.94;4980959;28;19925;-76
2023/11/19 01:32:23;;;;;;;;;;;;;;;-7.64;79.29;100549.44;4997783;28;19926;-75
2023/11/19 01:34:49;;;;;;;;;;;;;;;-7.71;79.49;100543.81;4997641;28;20392;-75
2023/11/19 01:37:15;;;;;;;;;;;;;;;-7.72;79.56;100564.25;4994647;28;19926;-75
2023/11/19 01:39:45;;;;;;;;;;;;;;;-7.75;79.80;100564.50;4976159;28;19926;-75
2023/11/19 01:42:12;;;;;;;;;;;;;;;-7.76;79.83;100562.00;4979396;28;19978;-70
2023/11/19 01:44:37;;;;;;;;;;;;;;;-7.82;80.07;100552.75;4994157;28;20448;-70
2023/11/19 01:47:04;;;;;;;;;;;;;;;-7.83;80.25;100553.72;4996636;28;19926;-75
2023/11/19 01:49:30;;;;;;;;;;;;;;;-7.85;80.39;100558.34;4979783;28;19972;-75
2023/11/19 01:51:57;;;;;;;;;;;;;;;-7.87;80.57;100561.13;4979668;28;20187;-75
2023/11/19 01:54:23;;;;;;;;;;;;;;;-7.85;80.77;100553.84;4996530;28;20033;-75
2023/11/19 01:56:52;;;;;;;;;;;;;;;-7.80;80.74;100549.94;4979596;28;19968;-75
2023/11/19 01:59:20;;;;;;;;;;;;;;;-7.71;80.52;100551.78;4990400;28;20609;-75
2023/11/19 02:01:46;;;;;;;;;;;;;;;-7.65;80.16;100550.41;4977090;28;19955;-70
2023/11/19 02:04:12;;;;;;;;;;;;;;;-7.67;80.23;100550.53;4977978;28;19925;-70
2023/11/19 02:06:40;;;;;;;;;;;;;;;-7.71;79.94;100547.34;4981765;28;19954;-70
2023/11/19 02:09:07;;;;;;;;;;;;;;;-7.68;80.04;100551.50;4982696;28;20393;-71
2023/11/19 02:11:33;;;;;;;;;;;;;;;-7.66;80.17;100549.56;5000365;28;19926;-70
2023/11/19 02:14:03;;;;;;;;;;;;;;;-7.65;80.42;100551.22;5001919;28;19925;-70
2023/11/19 02:16:29;;;;;;;;;;;;;;;-7.64;80.30;100549.44;4981134;28;19925;-70
2023/11/19 02:18:55;;;;;;;;;;;;;;;-7.71;80.35;100552.66;4977641;28;20449;-70
2023/11/19 02:21:21;;;;;;;;;;;;;;;-7.71;80.33;100551.78;4977057;28;19954;-71
2023/11/19 02:23:47;;;;;;;;;;;;;;;-7.73;80.57;100543.13;4960910;28;20060;-75
2023/11/19 02:26:16;;;;;;;;;;;;;;;-7.73;80.71;100540.47;4978256;28;19948;-75
2023/11/19 02:28:43;;;;;;;;;;;;;;;-7.82;80.53;100528.84;4978622;28;20393;-75
2023/11/19 02:31:10;;;;;;;;;;;;;;;-7.74;80.70;100542.28;4975251;28;19932;-75
2023/11/19 02:33:36;;;;;;;;;;;;;;;-7.76;80.79;100546.06;4999734;28;19952;-75
2023/11/19 02:36:03;;;;;;;;;;;;;;;-7.79;80.83;100544.50;4989021;28;20017;-69
2023/11/19 02:38:30;;;;;;;;;;;;;;;-7.84;80.95;100542.25;4978485;28;19966;-70
2023/11/19 02:40:56;;;;;;;;;;;;;;;-7.82;81.48;100542.13;4986068;28;19936;-70
2023/11/19 02:43:22;;;;;;;;;;;;;;;-7.81;81.32;100537.66;4982422;28;20032;-72
2023/11/19 02:45:50;;;;;;;;;;;;;;;-7.84;81.29;100536.13;4994920;28;19929;-70
2023/11/19 02:48:16;;;;;;;;;;;;;;;-7.90;81.67;100536.66;4991446;28;20391;-70
2023/11/19 02:50:42;;;;;;;;;;;;;;;-7.99;81.70;100538.31;4991039;28;19925;-70
2023/11/19 02:53:08;;;;;;;;;;;;;;;-8.00;82.33;100540.13;4979736;28;19925;-69
2023/11/19 02:55:37;;;;;;;;;;;;;;;-7.97;82.53;100539.00;4965939;28;19925;-70
2023/11/19 02:58:09;;;;;;;;;;;;;;;-7.92;82.76;100543.91;4986687;28;20351;-70
2023/11/19 03:00:42;;;;;;;;;;;;;;;-7.88;82.47;100537.34;4980991;28;19933;-70
2023/11/19 03:03:18;;;;;;;;;;;;;;;-7.81;82.37;100541.16;4989151;28;19990;-70
2023/11/19 03:05:44;;;;;;;;;;;;;;;-7.75;82.21;100543.25;4948370;28;19951;-70
2023/11/19 03:08:11;;;;;;;;;;;;;;;-7.73;82.13;100533.31;4978131;28;19926;-70
2023/11/19 03:10:37;;;;;;;;;;;;;;;-7.72;82.12;100532.38;4929585;28;19926;-70
2023/11/19 03:13:03;;;;;;;;;;;;;;;-7.67;82.08;100533.78;4961159;28;19926;-70
2023/11/19 03:15:29;;;;;;;;;;;;;;;-7.62;82.21;100532.38;4979732;28;19979;-70
2023/11/19 03:17:54;;;;;;;;;;;;;;;-7.59;81.82;100529.44;4979474;28;19948;-70
2023/11/19 03:20:23;;;;;;;;;;;;;;;-7.54;81.71;100529.03;4980988;28;19975;-70
2023/11/19 03:22:50;;;;;;;;;;;;;;;-7.47;81.28;100535.47;4981774;28;19925;-70
2023/11/19 03:25:16;;;;;;;;;;;;;;;-7.36;81.08;100537.13;4984553;28;19948;-70
2023/11/19 03:27:42;;;;;;;;;;;;;;;-7.30;80.92;100527.78;4998719;28;19926;-70
2023/11/19 03:30:11;;;;;;;;;;;;;;;-7.22;80.44;100535.03;5000815;28;20337;-71
2023/11/19 03:32:38;;;;;;;;;;;;;;;-7.09;80.12;100530.28;4999848;28;20414;-70
2023/11/19 03:35:06;;;;;;;;;;;;;;;-6.96;79.60;100524.66;4965413;28;19948;-70
2023/11/19 03:37:34;;;;;;;;;;;;;;;-6.85;79.11;100529.00;4978638;28;20399;-71
2023/11/19 03:40:00;;;;;;;;;;;;;;;-6.73;78.83;100525.19;4964373;28;19925;-71
2023/11/19 03:42:28;;;;;;;;;;;;;;;-6.62;77.99;100529.50;4969557;28;19975;-71
2023/11/19 03:44:54;;;;;;;;;;;;;;;-6.56;77.57;100522.75;5001575;28;19925;-76
2023/11/19 03:47:20;;;;;;;;;;;;;;;-6.53;77.37;100518.97;5008952;28;20310;-76
2023/11/19 03:49:48;;;;;;;;;;;;;;;-6.51;76.86;100511.69;4980566;28;20331;-70
2023/11/19 03:52:14;;;;;;;;;;;;;;;-6.50;76.61;100521.34;4963929;28;19970;-70
2023/11/19 03:54:41;;;;;;;;;;;;;;;-6.51;76.54;100520.50;4980482;28;20384;-70
2023/11/19 03:57:07;;;;;;;;;;;;;;;-6.45;76.62;100513.78;4980308;28;19997;-70
2023/11/19 03:59:33;;;;;;;;;;;;;;;-6.37;76.39;100516.53;4979136;28;20040;-70
2023/11/19 04:02:02;;;;;;;;;;;;;;;-6.30;76.27;100508.78;4982531;28;19925;-70
2023/11/19 04:04:29;;;;;;;;;;;;;;;-6.27;75.84;100514.66;4960150;28;19965;-75
2023/11/19 04:06:55;;;;;;;;;;;;;;;-6.27;75.93;100503.16;4970882;28;19937;-75
2023/11/19 04:09:20;;;;;;;;;;;;;;;-6.23;75.94;100499.25;4979915;28;19926;-75
2023/11/19 04:11:48;;;;;;;;;;;;;;;-6.23;75.77;100487.75;4968907;23;19913;-76
2023/11/19 04:14:14;;;;;;;;;;;;;;;-6.22;75.76;100484.94;4996016;28;19926;-75
2023/11/19 04:16:40;;;;;;;;;;;;;;;-6.19;75.83;100489.13;4995307;28;20006;-75
2023/11/19 04:19:06;;;;;;;;;;;;;;;-6.18;75.96;100482.81;5014769;28;19933;-75
2023/11/19 04:21:32;;;;;;;;;;;;;;;-6.17;76.03;100480.00;5001197;28;20387;-76
2023/11/19 04:23:58;;;;;;;;;;;;;;;-6.17;76.08;100473.81;5019340;28;20020;-75
2023/11/19 04:26:23;;;;;;;;;;;;;;;-6.17;76.08;100471.16;5020864;28;19972;-76
2023/11/19 04:28:51;;;;;;;;;;;;;;;-6.17;76.46;100472.03;5012140;28;20364;-76
2023/11/19 04:31:19;;;;;;;;;;;;;;;-6.17;76.49;100473.81;5000329;28;19955;-75
2023/11/19 04:33:45;;;;;;;;;;;;;;;-6.21;76.35;100475.13;5016245;28;19964;-76
2023/11/19 04:36:11;;;;;;;;;;;;;;;-6.32;76.60;100468.19;5002829;28;19925;-76
2023/11/19 04:38:38;;;;;;;;;;;;;;;-6.24;76.56;100478.94;5020870;28;20340;-76
2023/11/19 04:41:05;;;;;;;;;;;;;;;-6.24;76.39;100478.94;5018071;28;19925;-75
2023/11/19 04:43:31;;;;;;;;;;;;;;;-6.31;76.18;100483.16;4999084;28;19925;-76
2023/11/19 04:45:58;;;;;;;;;;;;;;;-6.35;76.73;100479.94;5001765;28;20058;-76
2023/11/19 04:48:24;;;;;;;;;;;;;;;-6.24;77.14;100480.75;5003686;28;19926;-77
2023/11/19 04:50:53;;;;;;;;;;;;;;;-6.18;77.36;100482.81;4999859;28;20440;-76
2023/11/19 04:53:18;;;;;;;;;;;;;;;-6.30;76.73;100483.03;4997926;28;20383;-76
2023/11/19 04:55:44;;;;;;;;;;;;;;;-6.47;77.18;100481.97;5002770;28;20028;-76
2023/11/19 04:58:10;;;;;;;;;;;;;;;-6.40;77.40;100482.22;4980442;28;20024;-76
2023/11/19 05:00:36;;;;;;;;;;;;;;;-6.45;77.11;100498.63;5000073;28;20415;-76
2023/11/19 05:03:03;;;;;;;;;;;;;;;-6.45;77.07;100498.63;5002657;28;20280;-75
2023/11/19 05:05:29;;;;;;;;;;;;;;;-6.38;76.99;100495.41;4999089;28;19970;-75
2023/11/19 05:07:55;;;;;;;;;;;;;;;-6.36;76.74;100494.25;4997806;28;19933;-76
2023/11/19 05:10:21;;;;;;;;;;;;;;;-6.36;76.65;100493.41;4997922;28;19931;-75
2023/11/19 05:12:46;;;;;;;;;;;;;;;-6.29;76.82;100494.50;4985909;28;20017;-75
2023/11/19 05:15:12;;;;;;;;;;;;;;;-6.27;76.62;100487.19;4997288;28;20401;-76
2023/11/19 05:17:38;;;;;;;;;;;;;;;-6.29;76.41;100492.69;4999809;28;20390;-75
2023/11/19 05:20:13;;;;;;;;;;;;;;;-6.34;76.43;100496.78;4998711;28;19929;-75
2023/11/19 05:22:39;;;;;;;;;;;;;;;-6.34;76.45;100494.09;4996798;28;20036;-76
2023/11/19 05:25:05;;;;;;;;;;;;;;;-6.36;76.31;100496.09;5010362;28;20020;-75
2023/11/19 05:27:31;;;;;;;;;;;;;;;-6.36;76.59;100502.22;4997392;28;19940;-75
2023/11/19 05:29:57;;;;;;;;;;;;;;;-6.30;76.51;100511.47;5005515;28;19941;-75
2023/11/19 05:32:23;;;;;;;;;;;;;;;-6.26;76.21;100502.19;4994325;28;19929;-76
2023/11/19 05:34:49;;;;;;;;;;;;;;;-6.25;76.01;100505.69;4996611;28;20309;-75
2023/11/19 05:37:16;;;;;;;;;;;;;;;-6.32;76.07;100506.28;4998243;28;19948;-75
2023/11/19 05:39:42;;;;;;;;;;;;;;;-6.33;76.05;100509.09;5003007;28;19948;-75
2023/11/19 05:42:08;;;;;;;;;;;;;;;-6.36;76.17;100512.88;4996537;28;19929;-76
2023/11/19 05:44:33;;;;;;;;;;;;;;;-6.39;76.26;100504.38;5016697;28;20019;-76
2023/11/19 05:46:59;;;;;;;;;;;;;;;-6.38;76.22;100509.53;5019111;28;20443;-75
2023/11/19 05:49:25;;;;;;;;;;;;;;;-6.36;76.28;100499.56;5017638;28;19931;-76
2023/11/19 05:51:51;;;;;;;;;;;;;;;-6.37;76.48;100507.72;5009311;28;19932;-75
2023/11/19 05:54:18;;;;;;;;;;;;;;;-6.36;76.40;100499.56;5017036;28;19925;-76
2023/11/19 05:56:48;;;;;;;;;;;;;;;-6.35;76.24;100497.75;4995295;28;19925;-75
2023/11/19 05:59:17;;;;;;;;;;;;;;;-6.35;75.92;100506.56;5010706;28;19960;-75
2023/11/19 06:01:43;;;;;;;;;;;;;;;-6.34;76.00;100492.25;5001106;28;19929;-75
2023/11/19 06:04:10;;;;;;;;;;;;;;;-6.39;76.26;100499.03;4999200;28;20358;-75
2023/11/19 06:06:35;;;;;;;;;;;;;;;-6.36;76.29;100496.91;4993212;28;19925;-76
2023/11/19 06:09:02;;;;;;;;;;;;;;;-6.32;76.37;100500.97;5009542;28;20309;-76
2023/11/19 06:11:29;;;;;;;;;;;;;;;-6.27;76.48;100493.38;5016224;28;19925;-76
2023/11/19 06:13:56;;;;;;;;;;;;;;;-6.24;76.53;100497.56;5011085;28;19931;-76
2023/11/19 06:16:21;;;;;;;;;;;;;;;-6.22;76.57;100495.59;5023109;28;20529;-75
2023/11/19 06:18:47;;;;;;;;;;;;;;;-6.23;76.61;100488.59;5033397;28;19956;-76
2023/11/19 06:21:14;;;;;;;;;;;;;;;-6.25;76.50;100490.53;5057442;28;20319;-76
2023/11/19 06:23:39;;;;;;;;;;;;;;;-6.23;76.74;100490.41;5085060;28;19924;-76
2023/11/19 06:26:05;;;;;;;;;;;;;;;-6.18;77.13;100490.78;5050416;28;19925;-76
2023/11/19 06:28:33;;;;;;;;;;;;;;;-6.15;77.09;100499.34;5010122;28;20355;-76
2023/11/19 06:30:59;;;;;;;;;;;;;;;-6.14;77.03;100502.84;5003396;28;19925;-75
2023/11/19 06:33:24;;;;;;;;;;;;;;;-6.12;76.90;100498.22;5003420;28;20083;-71
2023/11/19 06:35:50;;;;;;;;;;;;;;;-6.10;77.15;100490.06;5003192;28;20363;-72
2023/11/19 06:38:16;;;;;;;;;;;;;;;-6.08;77.21;100491.59;5002784;28;20400;-70
2023/11/19 06:40:42;;;;;;;;;;;;;;;-6.07;77.04;100495.94;5003424;28;19925;-71
2023/11/19 06:43:08;;;;;;;;;;;;;;;-6.08;77.37;100491.59;5020040;28;20439;-71
2023/11/19 06:45:39;;;;;;;;;;;;;;;-6.21;77.04;100475.97;5006541;28;19925;-71
2023/11/19 06:48:05;;;;;;;;;;;;;;;-6.07;77.28;100489.78;5000415;28;19933;-70
2023/11/19 06:50:31;;;;;;;;;;;;;;;-6.05;76.48;100474.47;4999962;28;19929;-71
2023/11/19 06:52:57;;;;;;;;;;;;;;;-6.09;76.57;100478.41;4999488;28;19926;-71
2023/11/19 06:55:22;;;;;;;;;;;;;;;-6.04;76.62;100476.16;5008352;28;19925;-71
2023/11/19 06:57:48;;;;;;;;;;;;;;;-6.01;75.74;100470.53;5018640;28;19925;-71
2023/11/19 07:00:15;;;;;;;;;;;;;;;-5.94;75.42;100486.72;5018928;28;19925;-71
2023/11/19 07:02:44;;;;;;;;;;;;;;;-5.90;75.76;100475.63;5021389;28;19929;-71
2023/11/19 07:05:12;;;;;;;;;;;;;;;-5.86;75.28;100484.97;5017365;28;19924;-72
2023/11/19 07:07:38;;;;;;;;;;;;;;;-6.05;74.88;100479.81;4992803;28;19948;-71
2023/11/19 07:10:06;;;;;;;;;;;;;;;-6.06;75.38;100491.44;5002521;28;20290;-70
2023/11/19 07:12:32;;;;;;;;;;;;;;;-5.96;75.89;100492.19;5017995;28;19985;-71
2023/11/19 07:15:00;;;;;;;;;;;;;;;-5.96;75.86;100492.19;5003472;28;20166;-71
2023/11/19 07:17:27;;;;;;;;;;;;;;;-5.88;75.96;100492.28;5004017;28;19925;-71
2023/11/19 07:19:59;;;;;;;;;;;;;;;-5.72;75.87;100494.25;4982951;28;19929;-71
2023/11/19 07:22:25;;;;;;;;;;;;;;;-5.53;75.78;100488.94;5015917;28;20214;-71
2023/11/19 07:24:51;;;;;;;;;;;;;;;-5.34;75.78;100491.44;5000463;28;19925;-71
2023/11/19 07:27:16;;;;;;;;;;;;;;;-5.29;75.04;100496.34;4997344;28;19955;-76
2023/11/19 07:29:43;;;;;;;;;;;;;;;-5.37;73.96;100491.75;4967981;28;20015;-76
2023/11/19 07:32:09;;;;;;;;;;;;;;;-5.34;74.28;100491.44;5003138;28;19961;-76
2023/11/19 07:34:35;;;;;;;;;;;;;;;-5.16;73.38;100494.09;5009551;28;20379;-76
2023/11/19 07:37:02;;;;;;;;;;;;;;;-4.96;72.65;100483.25;4976976;28;19925;-75
2023/11/19 07:39:28;;;;;;;;;;;;;;;-4.91;72.25;100477.44;4980438;28;19929;-76
2023/11/19 07:41:55;;;;;;;;;;;;;;;-4.63;71.30;100479.94;4993664;28;20391;-76
2023/11/19 07:44:24;;;;;;;;;;;;;;;-4.35;71.55;100475.25;4997888;28;19929;-76
2023/11/19 07:46:50;;;;;;;;;;;;;;;-4.15;70.32;100481.16;5003170;28;19925;-75
2023/11/19 07:49:21;;;;;;;;;;;;;;;-4.43;69.33;100483.22;4999871;28;20381;-74
2023/11/19 07:51:47;;;;;;;;;;;;;;;-4.52;70.18;100487.69;4997362;28;20452;-71
2023/11/19 07:54:14;;;;;;;;;;;;;;;-4.49;69.77;100481.19;5019507;28;19933;-71
2023/11/19 07:56:40;;;;;;;;;;;;;;;-4.51;70.36;100485.84;5018174;28;19933;-74
2023/11/19 07:59:06;;;;;;;;;;;;;;;-4.68;70.46;100483.09;5002653;28;20162;-74
2023/11/19 08:01:32;;;;;;;;;;;;;;;-5.01;70.16;100480.22;5012265;28;20466;-75
2023/11/19 08:03:58;;;;;;;;;;;;;;;-5.33;70.27;100478.97;5010034;28;19925;-74
2023/11/19 08:06:25;;;;;;;;;;;;;;;-5.57;69.95;100483.94;5008728;28;19951;-74
2023/11/19 08:08:51;;;;;;;;;;;;;;;-5.55;70.62;100481.94;4994061;28;19937;-75
2023/11/19 08:11:22;;;;;;;;;;;;;;;-5.43;69.73;100482.53;4988524;28;19932;-74
2023/11/19 08:13:47;;;;;;;;;;;;;;;-5.39;69.70;100475.09;4999234;28;20015;-74
2023/11/19 08:16:14;;;;;;;;;;;;;;;-5.38;68.79;100466.09;5015408;28;20379;-74
2023/11/19 08:18:41;;;;;;;;;;;;;;;-5.41;69.20;100469.06;4997038;28;19930;-75
2023/11/19 08:21:07;;;;;;;;;;;;;;;-5.07;68.17;100459.47;5016562;28;19969;-75
2023/11/19 08:23:32;;;;;;;;;;;;;;;-4.79;66.76;100457.50;4996916;28;20350;-74
2023/11/19 08:25:58;;;;;;;;;;;;;;;-4.60;65.11;100447.59;5003653;28;19971;-74
2023/11/19 08:28:26;;;;;;;;;;;;;;;-4.55;64.34;100453.28;5010842;28;19951;-74
2023/11/19 08:30:51;;;;;;;;;;;;;;;-4.61;63.61;100456.59;5023583;28;19924;-74
2023/11/19 08:33:17;;;;;;;;;;;;;;;-4.75;64.17;100455.38;4997095;28;19932;-74
2023/11/19 08:35:43;;;;;;;;;;;;;;;-4.61;64.15;100457.41;5004585;28;19929;-75
2023/11/19 08:38:09;;;;;;;;;;;;;;;-4.50;64.21;100459.00;5029558;28;20006;-74
2023/11/19 08:40:35;;;;;;;;;;;;;;;-4.22;63.37;100455.28;5000027;28;19932;-76
2023/11/19 08:43:00;;;;;;;;;;;;;;;-4.25;62.76;100459.09;5002240;28;20035;-76
2023/11/19 08:45:28;;;;;;;;;;;;;;;-4.18;62.15;100446.78;5003285;28;19971;-75
2023/11/19 08:47:54;;;;;;;;;;;;;;;-3.87;61.50;100445.34;4979710;28;19933;-75
2023/11/19 08:50:20;;;;;;;;;;;;;;;-3.66;59.92;100452.88;5014741;28;19923;-75
2023/11/19 08:52:46;;;;;;;;;;;;;;;-3.58;59.29;100449.38;5006204;28;19933;-76
2023/11/19 08:55:13;;;;;;;;;;;;;;;-2.93;57.52;100453.03;5002153;28;19960;-72
2023/11/19 08:57:39;;;;;;;;;;;;;;;-2.68;55.97;100452.13;5000669;28;20400;-72
2023/11/19 09:00:07;;;;;;;;;;;;;;;-2.59;55.23;100449.25;5000817;28;19975;-72
2023/11/19 09:02:36;;;;;;;;;;;;;;;-2.41;54.16;100445.53;4977719;28;19943;-72
2023/11/19 09:05:02;;;;;;;;;;;;;;;-3.08;54.64;100468.09;4989607;28;19925;-75
2023/11/19 09:07:29;;;;;;;;;;;;;;;-3.53;56.64;100451.56;4999237;28;20466;-75
2023/11/19 09:09:55;;;;;;;;;;;;;;;-3.44;56.47;100451.41;4999019;28;20036;-77
2023/11/19 09:12:21;;;;;;;;;;;;;;;-3.73;56.28;100447.38;4999826;28;19925;-76
2023/11/19 09:14:46;;;;;;;;;;;;;;;-4.22;57.93;100434.72;4991248;28;20403;-76
2023/11/19 09:17:12;;;;;;;;;;;;;;;-3.89;59.12;100437.50;4985293;28;19925;-76
2023/11/19 09:19:40;;;;;;;;;;;;;;;-2.72;56.39;100425.72;4999387;28;19935;-77
2023/11/19 09:22:06;;;;;;;;;;;;;;;-1.87;54.01;100417.97;5003979;28;19925;-77
2023/11/19 09:24:32;;;;;;;;;;;;;;;-1.06;51.90;100422.00;5004026;28;20320;-76
2023/11/19 09:26:58;;;;;;;;;;;;;;;-1.21;50.86;100419.28;4997804;28;19926;-76
2023/11/19 09:29:23;;;;;;;;;;;;;;;-1.77;52.33;100423.09;4995108;28;20031;-76
2023/11/19 09:31:49;;;;;;;;;;;;;;;-1.83;52.57;100431.81;5001660;28;19926;-76
2023/11/19 09:34:15;;;;;;;;;;;;;;;-2.17;52.40;100428.53;5001653;28;20225;-76
2023/11/19 09:36:44;;;;;;;;;;;;;;;-3.03;53.43;100421.09;5002461;28;19956;-76
2023/11/19 09:39:09;;;;;;;;;;;;;;;-3.50;54.75;100411.13;5006434;28;19978;-76
2023/11/19 09:41:35;;;;;;;;;;;;;;;-3.98;56.07;100409.09;4994853;28;19927;-76
2023/11/19 09:44:01;;;;;;;;;;;;;;;-4.28;57.61;100404.19;5000712;28;19990;-76
2023/11/19 09:46:28;;;;;;;;;;;;;;;-4.48;58.19;100405.44;4973162;28;20024;-75
2023/11/19 09:48:56;;;;;;;;;;;;;;;-4.66;58.45;100408.22;4979481;28;20054;-76
2023/11/19 09:51:22;;;;;;;;;;;;;;;-4.74;59.00;100406.34;5081701;28;20729;-75
2023/11/19 09:53:49;;;;;;;;;;;;;;;-4.74;59.38;100395.66;5001771;28;19925;-76
2023/11/19 09:56:16;;;;;;;;;;;;;;;-4.66;59.63;100387.69;4995386;28;19925;-76
2023/11/19 09:58:43;;;;;;;;;;;;;;;-3.93;58.14;100396.06;4995802;28;19933;-76
2023/11/19 10:01:12;;;;;;;;;;;;;;;-3.56;57.07;100378.72;4994872;28;20027;-75
2023/11/19 10:03:39;;;;;;;;;;;;;;;-3.30;56.08;100379.53;4996544;28;19926;-75
2023/11/19 10:06:06;;;;;;;;;;;;;;;-3.20;55.61;100374.84;4992868;28;20005;-76
2023/11/19 10:08:32;;;;;;;;;;;;;;;-3.09;55.09;100375.47;5000080;28;20376;-76
2023/11/19 10:10:59;;;;;;;;;;;;;;;-3.22;55.20;100368.78;4998041;28;20335;-76
2023/11/19 10:13:26;;;;;;;;;;;;;;;-3.48;54.37;100363.66;5000650;28;20470;-77
2023/11/19 10:15:52;;;;;;;;;;;;;;;-4.07;55.38;100356.63;5002132;28;20241;-77
2023/11/19 10:18:23;;;;;;;;;;;;;;;-4.39;55.91;100358.22;5000345;28;20369;-76
2023/11/19 10:20:49;;;;;;;;;;;;;;;-4.48;56.05;100366.22;5012118;28;20016;-76
2023/11/19 10:23:15;;;;;;;;;;;;;;;-4.53;56.39;100365.03;4998982;28;20035;-76
2023/11/19 10:25:41;;;;;;;;;;;;;;;-4.66;56.59;100360.16;5004989;28;19926;-76
2023/11/19 10:28:08;;;;;;;;;;;;;;;-4.76;56.70;100361.13;4999423;28;20392;-77
2023/11/19 10:30:34;;;;;;;;;;;;;;;-4.91;57.00;100358.22;4997132;28;19957;-72
2023/11/19 10:33:05;;;;;;;;;;;;;;;-5.02;57.26;100347.84;5005070;28;19925;-72
2023/11/19 10:35:31;;;;;;;;;;;;;;;-5.18;57.55;100348.56;4998842;28;19925;-72
2023/11/19 10:37:58;;;;;;;;;;;;;;;-5.19;58.01;100346.91;4995470;28;19931;-72
2023/11/19 10:40:37;;;;;;;;;;;;;;;-4.96;57.52;100346.38;5004911;28;19925;-72
2023/11/19 10:43:03;;;;;;;;;;;;;;;-4.84;56.99;100351.25;4983310;28;19925;-72
2023/11/19 10:45:30;;;;;;;;;;;;;;;-4.89;56.82;100355.38;4977784;28;20415;-73
2023/11/19 10:47:57;;;;;;;;;;;;;;;-4.95;57.02;100358.72;4996264;28;19928;-73
2023/11/19 10:50:25;;;;;;;;;;;;;;;-5.14;57.44;100355.28;4998303;28;19952;-73
2023/11/19 10:52:53;;;;;;;;;;;;;;;-5.12;57.71;100350.63;4982240;28;20332;-76
2023/11/19 10:55:22;;;;;;;;;;;;;;;-5.09;57.58;100358.31;4985172;28;19925;-77
2023/11/19 10:57:49;;;;;;;;;;;;;;;-5.07;57.95;100350.97;5017908;28;19947;-76
2023/11/19 11:00:17;;;;;;;;;;;;;;;-5.04;58.64;100355.97;4998306;28;19925;-77
2023/11/19 11:02:45;;;;;;;;;;;;;;;-4.91;58.89;100352.91;5007344;28;19932;-77
2023/11/19 11:05:12;;;;;;;;;;;;;;;-4.86;58.94;100349.72;4998063;28;20010;-76
2023/11/19 11:07:39;;;;;;;;;;;;;;;-4.88;58.97;100349.06;5000425;28;19925;-77
2023/11/19 11:10:07;;;;;;;;;;;;;;;-4.90;58.91;100356.38;5002087;28;19925;-76
2023/11/19 11:12:36;;;;;;;;;;;;;;;-4.96;59.13;100349.84;5002817;28;19951;-76
2023/11/19 11:15:05;;;;;;;;;;;;;;;-4.94;58.99;100345.19;4979772;28;19926;-76
2023/11/19 11:17:31;;;;;;;;;;;;;;;-4.90;59.18;100349.22;5001070;28;20403;-75
2023/11/19 11:19:59;;;;;;;;;;;;;;;-4.82;58.55;100350.25;5018888;28;19937;-76
2023/11/19 11:22:27;;;;;;;;;;;;;;;-4.90;58.40;100343.91;4999466;28;20390;-76
2023/11/19 11:25:09;;;;;;;;;;;;;;;-4.91;58.64;100336.88;5005265;28;19929;-76
2023/11/19 11:27:43;;;;;;;;;;;;;;;-4.91;58.41;100336.88;5000360;28;20273;-76
2023/11/19 11:30:13;;;;;;;;;;;;;;;-4.99;58.25;100339.50;5001060;28;20256;-76
2023/11/19 11:32:45;;;;;;;;;;;;;;;-5.04;58.13;100339.97;5002842;28;19952;-76
2023/11/19 11:35:28;;;;;;;;;;;;;;;-5.10;58.50;100340.63;5010928;28;19936;-73
2023/11/19 11:37:59;;;;;;;;;;;;;;;-5.13;58.68;100335.63;4999723;28;19925;-73
2023/11/19 11:40:26;;;;;;;;;;;;;;;-5.09;58.92;100344.97;5002027;28;19929;-72
2023/11/19 11:42:52;;;;;;;;;;;;;;;-5.10;59.30;100337.09;4991018;28;20123;-73
2023/11/19 11:45:19;;;;;;;;;;;;;;;-5.16;59.80;100334.09;5003814;28;20328;-72
2023/11/19 11:48:04;;;;;;;;;;;;;;;-5.24;60.25;100331.38;4977843;28;19932;-72
2023/11/19 11:50:33;;;;;;;;;;;;;;;-5.31;61.17;100333.84;4998455;28;19927;-75
2023/11/19 11:53:13;;;;;;;;;;;;;;;-5.33;61.75;100338.47;4994179;28;20401;-77
2023/11/19 11:55:53;;;;;;;;;;;;;;;-5.32;62.27;100340.16;5007518;28;20039;-76
2023/11/19 11:58:18;;;;;;;;;;;;;;;-5.31;62.47;100341.84;5003040;28;20016;-76
2023/11/19 12:00:46;;;;;;;;;;;;;;;-5.32;62.69;100337.50;5011791;28;20032;-78
2023/11/19 12:03:12;;;;;;;;;;;;;;;-5.42;62.24;100339.44;4982155;28;20118;-76
2023/11/19 12:05:40;;;;;;;;;;;;;;;-5.38;62.12;100332.81;5001456;28;20019;-76
2023/11/19 12:08:07;;;;;;;;;;;;;;;-5.44;61.70;100328.09;5006839;28;19985;-75
2023/11/19 12:10:37;;;;;;;;;;;;;;;-5.46;61.54;100322.91;4999388;28;19929;-76
2023/11/19 12:13:06;;;;;;;;;;;;;;;-5.49;61.67;100325.06;5003229;28;19936;-76
2023/11/19 12:15:32;;;;;;;;;;;;;;;-5.50;61.82;100329.56;4997699;28;19929;-76
2023/11/19 12:17:58;;;;;;;;;;;;;;;-5.52;62.10;100334.22;5000803;28;20490;-76
2023/11/19 12:20:25;;;;;;;;;;;;;;;-5.52;62.38;100338.69;5004232;28;20040;-76
2023/11/19 12:22:53;;;;;;;;;;;;;;;-5.52;62.29;100336.88;5006330;28;19930;-76
2023/11/19 12:25:23;;;;;;;;;;;;;;;-5.53;62.55;100323.69;5001044;28;19925;-75
2023/11/19 12:27:49;;;;;;;;;;;;;;;-5.52;62.60;100326.22;4998187;28;19925;-76
2023/11/19 12:30:17;;;;;;;;;;;;;;;-5.50;62.32;100320.72;4660630;28;10000615;-76
2023/11/19 12:32:44;;;;;;;;;;;;;;;-5.53;62.60;100321.03;4662211;28;10000422;-76
2023/11/19 12:35:13;;;;;;;;;;;;;;;-5.63;62.96;100315.81;4995133;28;19978;-76